sensor_id;sensor_type;location;lat;lon;timestamp;P1;durP1;ratioP1;P2;durP2;ratioP2
29254;SDS011;16277;48.890;2.306;2023-07-13T00:13:14;6.73;;;2.30;;
29254;SDS011;16277;48.890;2.306;2023-07-13T00:28:20;4.83;;;2.00;;
29254;SDS011;16277;48.890;2.306;2023-07-13T00:43:25;8.27;;;2.20;;
29254;SDS011;16277;48.890;2.306;2023-07-13T00:58:32;1.80;;;1.63;;
29254;SDS011;16277;48.890;2.306;2023-07-13T01:13:38;1.63;;;1.53;;
29254;SDS011;16277;48.890;2.306;2023-07-13T01:28:43;3.10;;;2.00;;
29254;SDS011;16277;48.890;2.306;2023-07-13T01:43:48;2.93;;;1.87;;
29254;SDS011;16277;48.890;2.306;2023-07-13T01:58:53;3.53;;;1.90;;
29254;SDS011;16277;48.890;2.306;2023-07-13T02:13:57;2.10;;;2.00;;
29254;SDS011;16277;48.890;2.306;2023-07-13T02:29:02;3.77;;;1.87;;
29254;SDS011;16277;48.890;2.306;2023-07-13T02:44:06;4.13;;;1.73;;
29254;SDS011;16277;48.890;2.306;2023-07-13T02:59:11;7.30;;;2.47;;
29254;SDS011;16277;48.890;2.306;2023-07-13T03:14:15;4.73;;;2.00;;
29254;SDS011;16277;48.890;2.306;2023-07-13T03:29:20;6.13;;;2.23;;
29254;SDS011;16277;48.890;2.306;2023-07-13T03:44:26;2.90;;;2.10;;
29254;SDS011;16277;48.890;2.306;2023-07-13T03:59:32;3.50;;;1.40;;
29254;SDS011;16277;48.890;2.306;2023-07-13T04:14:37;4.73;;;2.10;;
29254;SDS011;16277;48.890;2.306;2023-07-13T04:29:41;2.47;;;2.00;;
29254;SDS011;16277;48.890;2.306;2023-07-13T04:44:48;2.40;;;2.20;;
29254;SDS011;16277;48.890;2.306;2023-07-13T04:59:53;8.87;;;3.00;;
29254;SDS011;16277;48.890;2.306;2023-07-13T05:14:58;3.37;;;2.20;;
29254;SDS011;16277;48.890;2.306;2023-07-13T05:30:03;12.37;;;2.90;;
29254;SDS011;16277;48.890;2.306;2023-07-13T05:45:09;3.80;;;2.37;;
29254;SDS011;16277;48.890;2.306;2023-07-13T06:00:14;5.30;;;2.20;;
29254;SDS011;16277;48.890;2.306;2023-07-13T06:15:19;6.63;;;3.27;;
29254;SDS011;16277;48.890;2.306;2023-07-13T06:30:24;6.93;;;2.87;;
29254;SDS011;16277;48.890;2.306;2023-07-13T06:45:28;11.60;;;3.73;;
29254;SDS011;16277;48.890;2.306;2023-07-13T07:00:33;7.57;;;3.43;;
29254;SDS011;16277;48.890;2.306;2023-07-13T07:15:39;21.10;;;3.87;;
29254;SDS011;16277;48.890;2.306;2023-07-13T07:30:43;16.83;;;2.93;;
29254;SDS011;16277;48.890;2.306;2023-07-13T07:45:51;7.77;;;2.73;;
29254;SDS011;16277;48.890;2.306;2023-07-13T08:01:02;6.53;;;3.57;;
29254;SDS011;16277;48.890;2.306;2023-07-13T08:16:10;17.03;;;3.07;;
29254;SDS011;16277;48.890;2.306;2023-07-13T08:31:15;6.70;;;3.23;;
29254;SDS011;16277;48.890;2.306;2023-07-13T08:46:21;23.27;;;3.03;;
29254;SDS011;16277;48.890;2.306;2023-07-13T09:01:33;5.37;;;2.63;;
29254;SDS011;16277;48.890;2.306;2023-07-13T09:16:50;8.77;;;2.10;;
29254;SDS011;16277;48.890;2.306;2023-07-13T09:31:55;2.63;;;2.33;;
29254;SDS011;16277;48.890;2.306;2023-07-13T09:47:13;3.43;;;2.07;;
29254;SDS011;16277;48.890;2.306;2023-07-13T10:02:27;9.57;;;2.77;;
29254;SDS011;16277;48.890;2.306;2023-07-13T10:17:35;2.50;;;2.20;;
29254;SDS011;16277;48.890;2.306;2023-07-13T10:32:40;2.27;;;2.03;;
29254;SDS011;16277;48.890;2.306;2023-07-13T10:47:44;3.03;;;2.70;;
29254;SDS011;16277;48.890;2.306;2023-07-13T11:02:56;2.57;;;2.13;;
29254;SDS011;16277;48.890;2.306;2023-07-13T11:18:04;5.63;;;2.03;;
29254;SDS011;16277;48.890;2.306;2023-07-13T11:33:23;2.50;;;1.50;;
29254;SDS011;16277;48.890;2.306;2023-07-13T11:48:31;2.77;;;1.80;;
29254;SDS011;16277;48.890;2.306;2023-07-13T12:03:41;3.33;;;1.53;;
29254;SDS011;16277;48.890;2.306;2023-07-13T12:18:45;2.40;;;1.03;;
29254;SDS011;16277;48.890;2.306;2023-07-13T12:33:55;1.23;;;1.10;;
29254;SDS011;16277;48.890;2.306;2023-07-13T12:49:04;1.07;;;0.97;;
29254;SDS011;16277;48.890;2.306;2023-07-13T13:04:21;6.73;;;2.00;;
29254;SDS011;16277;48.890;2.306;2023-07-13T13:19:27;7.20;;;1.00;;
29254;SDS011;16277;48.890;2.306;2023-07-13T13:34:33;2.03;;;1.40;;
29254;SDS011;16277;48.890;2.306;2023-07-13T13:49:38;35.97;;;2.42;;
29254;SDS011;16277;48.890;2.306;2023-07-13T14:04:42;15.47;;;2.27;;
29254;SDS011;16277;48.890;2.306;2023-07-13T14:19:47;2.33;;;1.50;;
29254;SDS011;16277;48.890;2.306;2023-07-13T14:34:53;6.30;;;1.83;;
29254;SDS011;16277;48.890;2.306;2023-07-13T14:49:58;6.47;;;2.63;;
29254;SDS011;16277;48.890;2.306;2023-07-13T15:05:08;1.57;;;1.47;;
29254;SDS011;16277;48.890;2.306;2023-07-13T15:20:18;4.37;;;1.70;;
29254;SDS011;16277;48.890;2.306;2023-07-13T15:35:27;1.63;;;1.53;;
29254;SDS011;16277;48.890;2.306;2023-07-13T15:50:32;1.10;;;1.10;;
29254;SDS011;16277;48.890;2.306;2023-07-13T16:05:47;2.40;;;1.93;;
29254;SDS011;16277;48.890;2.306;2023-07-13T16:20:51;7.93;;;1.80;;
29254;SDS011;16277;48.890;2.306;2023-07-13T16:35:59;1.83;;;1.73;;
29254;SDS011;16277;48.890;2.306;2023-07-13T16:51:05;5.70;;;1.67;;
29254;SDS011;16277;48.890;2.306;2023-07-13T17:06:19;1.40;;;1.30;;
29254;SDS011;16277;48.890;2.306;2023-07-13T17:21:27;4.20;;;1.67;;
29254;SDS011;16277;48.890;2.306;2023-07-13T17:36:31;1.50;;;1.17;;
29254;SDS011;16277;48.890;2.306;2023-07-13T17:51:36;4.17;;;2.17;;
29254;SDS011;16277;48.890;2.306;2023-07-13T18:06:44;9.47;;;2.03;;
29254;SDS011;16277;48.890;2.306;2023-07-13T18:21:55;2.23;;;2.13;;
29254;SDS011;16277;48.890;2.306;2023-07-13T18:37:00;2.53;;;2.33;;
29254;SDS011;16277;48.890;2.306;2023-07-13T18:52:07;10.80;;;3.30;;
29254;SDS011;16277;48.890;2.306;2023-07-13T19:07:21;3.77;;;2.80;;
29254;SDS011;16277;48.890;2.306;2023-07-13T19:22:26;4.70;;;3.53;;
29254;SDS011;16277;48.890;2.306;2023-07-13T19:37:30;3.20;;;3.00;;
29254;SDS011;16277;48.890;2.306;2023-07-13T19:52:36;3.23;;;3.03;;
29254;SDS011;16277;48.890;2.306;2023-07-13T20:07:49;2.53;;;2.40;;
29254;SDS011;16277;48.890;2.306;2023-07-13T20:22:59;3.40;;;3.13;;
29254;SDS011;16277;48.890;2.306;2023-07-13T20:38:04;3.03;;;2.93;;
29254;SDS011;16277;48.890;2.306;2023-07-13T20:53:10;3.53;;;3.23;;
29254;SDS011;16277;48.890;2.306;2023-07-13T21:08:15;4.07;;;3.60;;
29254;SDS011;16277;48.890;2.306;2023-07-13T21:23:28;3.87;;;3.53;;
29254;SDS011;16277;48.890;2.306;2023-07-13T21:38:35;3.30;;;3.00;;
29254;SDS011;16277;48.890;2.306;2023-07-13T21:53:42;8.10;;;3.17;;
29254;SDS011;16277;48.890;2.306;2023-07-13T22:08:47;5.43;;;5.03;;
29254;SDS011;16277;48.890;2.306;2023-07-13T22:23:52;13.20;;;4.57;;
29254;SDS011;16277;48.890;2.306;2023-07-13T22:38:56;13.00;;;4.17;;
29254;SDS011;16277;48.890;2.306;2023-07-13T22:54:01;4.27;;;4.03;;
29254;SDS011;16277;48.890;2.306;2023-07-13T23:09:09;5.33;;;4.73;;
29254;SDS011;16277;48.890;2.306;2023-07-13T23:24:17;5.70;;;5.20;;
29254;SDS011;16277;48.890;2.306;2023-07-13T23:39:22;5.83;;;5.50;;
29254;SDS011;16277;48.890;2.306;2023-07-13T23:54:27;10.80;;;5.00;;
